Time;durP1;ratioP1;P1;durP2;ratioP2;P2;SDS_P1;SDS_P2;PMS_P1;PMS_P2;Temp;Humidity;BMP_temperature;BMP_pressure;BME280_temperature;BME280_humidity;BME280_pressure;Samples;Min_cycle;Max_cycle;Signal;HPM_P1;HPM_P2
2023/12/04 00:01:58;;;;;;;15.50;8.60;;;;;;;-2.37;85.62;99129.37;105808;1254;61109;-28
2023/12/04 00:04:25;;;;;;;13.10;7.50;;;;;;;-1.93;84.62;99125.74;105604;1254;61219;-29
2023/12/04 00:06:52;;;;;;;12.20;8.40;;;;;;;-1.64;82.84;99132.07;105579;1254;73868;-29
2023/12/04 00:09:19;;;;;;;12.20;7.20;;;;;;;-1.64;82.56;99136.15;105623;1254;74843;-28
2023/12/04 00:11:46;;;;;;;14.80;9.10;;;;;;;-1.86;83.09;99133.05;105827;1256;72536;-29
2023/12/04 00:14:14;;;;;;;20.60;12.20;;;;;;;-2.07;84.32;99136.70;105770;1252;61008;-28
2023/12/04 00:16:41;;;;;;;19.30;10.00;;;;;;;-2.21;85.29;99145.10;105826;1256;61155;-28
2023/12/04 00:19:09;;;;;;;14.40;8.00;;;;;;;-2.28;85.73;99148.01;105720;1254;73673;-28
2023/12/04 00:21:36;;;;;;;13.50;8.90;;;;;;;-1.80;84.61;99150.22;105596;1259;74494;-29
2023/12/04 00:24:04;;;;;;;18.20;10.70;;;;;;;-1.53;82.67;99156.58;105660;1254;73301;-28
2023/12/04 00:26:31;;;;;;;15.70;8.50;;;;;;;-1.62;82.89;99154.31;105730;1254;61208;-28
2023/12/04 00:28:58;;;;;;;17.70;9.40;;;;;;;-1.84;83.95;99158.36;105934;1254;61098;-29
2023/12/04 00:31:25;;;;;;;17.10;10.10;;;;;;;-2.00;84.90;99162.55;105616;1253;73912;-29
2023/12/04 00:33:53;;;;;;;18.50;9.30;;;;;;;-2.19;86.12;99166.47;105578;1259;75713;-29
2023/12/04 00:36:20;;;;;;;13.50;7.40;;;;;;;-1.95;86.17;99165.82;105838;1253;72679;-28
2023/12/04 00:38:47;;;;;;;15.70;8.60;;;;;;;-1.59;84.86;99174.15;105759;1254;60981;-28
2023/12/04 00:41:14;;;;;;;15.20;9.80;;;;;;;-1.57;83.86;99175.10;105858;1254;61148;-28
2023/12/04 00:43:41;;;;;;;14.20;8.20;;;;;;;-1.80;84.81;99175.94;105912;1254;73718;-29
2023/12/04 00:46:08;;;;;;;21.60;12.70;;;;;;;-1.96;85.42;99176.89;105923;1254;74841;-29
2023/12/04 00:48:35;;;;;;;13.60;8.30;;;;;;;-2.23;86.64;99172.52;105648;1253;72708;-28
2023/12/04 00:51:02;;;;;;;20.90;11.70;;;;;;;-2.04;86.73;99180.19;105607;1254;61180;-28
2023/12/04 00:53:29;;;;;;;19.00;11.80;;;;;;;-1.51;84.55;99181.91;105638;1256;61128;-29
2023/12/04 00:55:56;;;;;;;16.10;9.50;;;;;;;-1.40;83.03;99177.00;105783;1254;73698;-29
2023/12/04 00:58:23;;;;;;;17.30;9.50;;;;;;;-1.49;82.98;99183.72;105645;1254;74892;-28
2023/12/04 01:00:52;;;;;;;32.80;10.60;;;;;;;-1.71;83.66;99174.67;105609;1254;72721;-29
2023/12/04 01:03:19;;;;;;;19.00;10.70;;;;;;;-1.97;85.19;99184.59;105644;1254;61176;-28
2023/12/04 01:05:46;;;;;;;16.50;10.30;;;;;;;-2.04;85.62;99187.16;105513;1260;61384;-28
2023/12/04 01:08:13;;;;;;;20.10;10.40;;;;;;;-1.67;84.75;99186.11;105584;1254;73806;-28
2023/12/04 01:10:40;;;;;;;14.50;9.00;;;;;;;-1.29;82.55;99183.96;105910;1254;74862;-28
2023/12/04 01:13:07;;;;;;;16.90;9.60;;;;;;;-1.32;82.17;99185.10;105885;1254;72695;-29
2023/12/04 01:15:36;;;;;;;20.50;11.70;;;;;;;-1.55;82.82;99185.95;105860;1257;61152;-29
2023/12/04 01:18:03;;;;;;;20.70;10.20;;;;;;;-1.84;83.96;99190.69;105512;1254;61097;-29
2023/12/04 01:20:33;;;;;;;12.00;7.20;;;;;;;-1.99;84.91;99193.14;105683;1254;73874;-29
2023/12/04 01:23:00;;;;;;;24.60;12.30;;;;;;;-1.93;85.12;99195.53;105695;1255;74459;-28
2023/12/04 01:25:27;;;;;;;15.30;8.70;;;;;;;-1.66;84.09;99196.65;105646;1256;72639;-29
2023/12/04 01:27:54;;;;;;;19.40;11.00;;;;;;;-1.45;82.64;99198.59;105399;1254;61072;-29
2023/12/04 01:30:21;;;;;;;16.00;9.20;;;;;;;-1.74;83.52;99199.94;105733;1256;61150;-29
2023/12/04 01:32:48;;;;;;;17.90;10.30;;;;;;;-1.82;83.90;99205.30;105911;1254;73656;-28
2023/12/04 01:35:15;;;;;;;15.40;8.80;;;;;;;-1.98;84.58;99205.71;105769;1256;74121;-28
2023/12/04 01:37:42;;;;;;;18.00;9.60;;;;;;;-2.04;85.27;99207.05;105581;1254;72704;-29
2023/12/04 01:40:10;;;;;;;16.10;9.50;;;;;;;-1.65;84.00;99210.26;105773;1252;61063;-29
2023/12/04 01:42:37;;;;;;;12.10;7.30;;;;;;;-1.44;82.71;99215.08;105630;1254;61151;-29
2023/12/04 01:45:05;;;;;;;15.30;9.70;;;;;;;-1.50;82.54;99214.41;105815;1254;74072;-29
2023/12/04 01:47:33;;;;;;;14.30;8.50;;;;;;;-1.75;83.23;99217.84;105490;1259;74255;-29
2023/12/04 01:50:01;;;;;;;20.60;9.90;;;;;;;-1.92;83.82;99220.17;105426;1259;72657;-29
2023/12/04 01:52:28;;;;;;;13.70;8.20;;;;;;;-2.01;84.24;99216.85;105604;1254;61101;-28
2023/12/04 01:54:56;;;;;;;12.90;7.90;;;;;;;-1.56;83.04;99208.79;105554;1259;61230;-29
2023/12/04 01:57:23;;;;;;;13.20;8.40;;;;;;;-1.38;81.77;99207.23;105562;1254;73634;-29
2023/12/04 01:59:50;;;;;;;14.60;8.50;;;;;;;-1.44;81.33;99204.88;105703;1255;74287;-29
2023/12/04 02:02:17;;;;;;;12.20;7.30;;;;;;;-1.73;81.96;99207.56;105726;1256;72737;-28
2023/12/04 02:04:44;;;;;;;15.50;8.60;;;;;;;-1.93;83.29;99200.30;105682;1253;60991;-28
2023/12/04 02:07:12;;;;;;;13.60;8.30;;;;;;;-2.14;84.32;99209.38;105495;1257;61277;-29
2023/12/04 02:09:39;;;;;;;16.60;9.30;;;;;;;-1.79;83.52;99209.10;105595;1254;73492;-29
2023/12/04 02:12:06;;;;;;;14.80;9.40;;;;;;;-1.51;81.74;99201.67;105652;1254;74183;-29
2023/12/04 02:14:33;;;;;;;14.40;8.00;;;;;;;-1.59;81.57;99201.57;105857;1253;72586;-28
2023/12/04 02:17:01;;;;;;;11.30;6.60;;;;;;;-1.71;81.87;99202.40;105884;1254;61044;-28
2023/12/04 02:19:28;;;;;;;14.40;8.90;;;;;;;-1.89;81.98;99210.58;105634;1259;61161;-28
2023/12/04 02:21:55;;;;;;;10.10;5.80;;;;;;;-2.12;82.60;99211.70;105707;1254;73653;-29
2023/12/04 02:24:22;;;;;;;17.70;8.90;;;;;;;-1.90;82.51;99217.41;105698;1254;74510;-28
2023/12/04 02:26:57;;;;;;;15.80;8.60;;;;;;;-1.45;80.46;99215.29;105904;1254;72714;-29
2023/12/04 02:29:29;;;;;;;12.10;7.40;;;;;;;-1.40;79.17;99221.27;105584;1254;61147;-29
2023/12/04 02:31:57;;;;;;;7.90;4.90;;;;;;;-1.56;79.59;99226.33;105654;1261;61199;-29
2023/12/04 02:34:24;;;;;;;12.90;7.60;;;;;;;-1.72;80.33;99231.52;105831;1253;73668;-29
2023/12/04 02:36:51;;;;;;;14.70;8.40;;;;;;;-1.90;81.01;99235.80;105435;1259;74395;-28
2023/12/04 02:39:19;;;;;;;14.30;7.10;;;;;;;-2.13;81.76;99232.98;105544;1254;72487;-29
2023/12/04 02:41:46;;;;;;;12.40;6.00;;;;;;;-1.86;81.10;99239.06;105689;1254;61144;-29
2023/12/04 02:44:13;;;;;;;12.00;7.70;;;;;;;-1.57;78.89;99231.80;105855;1254;61108;-29
2023/12/04 02:46:40;;;;;;;13.20;7.40;;;;;;;-1.60;79.44;99238.71;105668;1254;73884;-29
2023/12/04 02:49:07;;;;;;;20.50;10.40;;;;;;;-1.76;80.11;99240.00;105672;1254;74837;-29
2023/12/04 02:51:33;;;;;;;11.80;7.50;;;;;;;-1.91;81.09;99243.81;105530;1253;73026;-29
2023/12/04 02:54:01;;;;;;;14.80;9.50;;;;;;;-2.07;81.53;99248.64;105579;1254;61073;-29
2023/12/04 02:56:28;;;;;;;16.30;8.30;;;;;;;-2.19;82.48;99252.22;105648;1256;61125;-28
2023/12/04 02:58:55;;;;;;;11.20;7.20;;;;;;;-1.86;82.14;99254.56;105750;1254;73545;-28
2023/12/04 03:01:22;;;;;;;19.00;10.10;;;;;;;-1.46;80.19;99251.75;105670;1256;74799;-28
2023/12/04 03:03:49;;;;;;;19.70;9.50;;;;;;;-1.52;80.15;99260.95;105919;1254;72637;-29
2023/12/04 03:06:16;;;;;;;18.10;10.20;;;;;;;-1.75;81.36;99266.35;105806;1254;60982;-29
2023/12/04 03:08:43;;;;;;;17.40;8.10;;;;;;;-1.99;82.93;99264.94;105735;1256;61173;-28
2023/12/04 03:11:10;;;;;;;20.60;8.70;;;;;;;-2.04;83.66;99270.69;105933;1253;74261;-28
2023/12/04 03:13:38;;;;;;;11.20;7.40;;;;;;;-2.17;84.72;99273.74;105900;1255;74141;-29
2023/12/04 03:16:06;;;;;;;19.10;11.20;;;;;;;-1.91;84.25;99277.86;105624;1254;72310;-29
2023/12/04 03:18:34;;;;;;;18.90;9.30;;;;;;;-1.58;82.74;99280.01;105401;1254;61150;-28
2023/12/04 03:21:01;;;;;;;14.80;8.20;;;;;;;-1.51;81.99;99278.30;105400;1252;61096;-28
2023/12/04 03:23:28;;;;;;;16.90;7.90;;;;;;;-1.59;82.07;99279.05;105748;1253;73791;-28
2023/12/04 03:25:55;;;;;;;14.20;9.00;;;;;;;-1.78;82.46;99285.33;105881;1254;74210;-30
2023/12/04 03:28:22;;;;;;;13.80;8.50;;;;;;;-1.96;83.12;99279.50;105815;1254;73212;-31
2023/12/04 03:30:49;;;;;;;9.90;6.00;;;;;;;-1.98;83.62;99284.33;105715;1257;61166;-29
2023/12/04 03:33:16;;;;;;;18.20;9.60;;;;;;;-1.44;81.80;99291.90;105533;1256;61106;-28
2023/12/04 03:35:44;;;;;;;13.60;8.80;;;;;;;-1.41;80.58;99282.11;105510;1254;74390;-29
2023/12/04 03:38:10;;;;;;;13.90;7.10;;;;;;;-1.56;81.04;99285.77;105247;1262;72218;-28
2023/12/04 03:40:37;;;;;;;12.40;8.30;;;;;;;-1.86;81.88;99289.12;105688;1253;72664;-29
2023/12/04 03:43:04;;;;;;;13.20;7.80;;;;;;;-2.09;83.00;99295.34;105532;1254;61068;-28
2023/12/04 03:45:32;;;;;;;9.60;5.90;;;;;;;-2.22;83.52;99295.83;105546;1257;61108;-29
2023/12/04 03:47:59;;;;;;;10.60;6.30;;;;;;;-1.96;82.67;99294.13;105770;1254;73724;-28
2023/12/04 03:50:26;;;;;;;9.80;6.00;;;;;;;-1.63;79.76;99291.59;105586;1257;74277;-28
2023/12/04 03:52:53;;;;;;;14.20;6.70;;;;;;;-1.68;79.34;99296.11;105524;1256;72699;-28
2023/12/04 03:55:20;;;;;;;11.90;5.70;;;;;;;-1.78;79.63;99297.77;105561;1254;61059;-28
2023/12/04 03:57:47;;;;;;;10.00;6.30;;;;;;;-1.95;80.23;99301.09;105484;1254;61249;-29
2023/12/04 04:00:15;;;;;;;8.70;5.50;;;;;;;-2.15;80.12;99300.06;105479;1254;73734;-29
2023/12/04 04:02:43;;;;;;;6.50;4.50;;;;;;;-2.29;79.80;99300.42;105598;1254;74341;-28
2023/12/04 04:05:10;;;;;;;7.50;3.70;;;;;;;-2.04;78.19;99302.34;105380;1254;72537;-28
2023/12/04 04:07:37;;;;;;;9.40;4.10;;;;;;;-1.80;76.96;99309.20;105537;1254;61036;-29
2023/12/04 04:10:05;;;;;;;4.70;3.50;;;;;;;-2.02;76.76;99306.55;105219;1262;61170;-29
2023/12/04 04:12:32;;;;;;;4.90;3.10;;;;;;;-2.20;77.62;99315.67;105324;1259;72562;-28
2023/12/04 04:14:59;;;;;;;5.60;4.00;;;;;;;-2.26;77.96;99319.39;105550;1259;74226;-28
2023/12/04 04:17:26;;;;;;;5.50;3.00;;;;;;;-2.49;78.89;99325.21;105511;1256;72667;-28
2023/12/04 04:19:54;;;;;;;6.70;3.50;;;;;;;-2.72;79.90;99329.30;105528;1254;61208;-28
2023/12/04 04:22:21;;;;;;;5.80;3.30;;;;;;;-2.47;79.47;99326.02;105556;1257;61119;-28
2023/12/04 04:24:49;;;;;;;4.20;3.10;;;;;;;-2.16;76.94;99313.69;105504;1254;73771;-29
2023/12/04 04:27:16;;;;;;;8.40;4.30;;;;;;;-2.15;76.11;99315.05;105588;1254;74321;-28
2023/12/04 04:29:43;;;;;;;6.40;4.40;;;;;;;-2.50;77.92;99322.68;105799;1254;72535;-29
2023/12/04 04:32:10;;;;;;;9.20;4.50;;;;;;;-2.52;78.06;99325.96;105830;1254;61052;-28
2023/12/04 04:34:40;;;;;;;6.80;4.20;;;;;;;-2.71;79.11;99326.73;105509;1259;61231;-28
2023/12/04 04:37:07;;;;;;;5.70;3.80;;;;;;;-2.95;80.13;99322.65;105501;1254;73920;-28
2023/12/04 04:39:34;;;;;;;4.00;2.80;;;;;;;-2.98;80.74;99332.91;105568;1256;73168;-30
2023/12/04 04:42:02;;;;;;;6.00;4.10;;;;;;;-2.49;79.47;99334.23;105505;1254;72661;-28
2023/12/04 04:44:29;;;;;;;6.90;4.60;;;;;;;-2.17;78.01;99333.45;105498;1254;61151;-28
2023/12/04 04:46:56;;;;;;;6.30;4.40;;;;;;;-2.45;77.94;99318.64;105553;1254;61145;-29
2023/12/04 04:49:23;;;;;;;9.70;4.80;;;;;;;-2.59;78.53;99330.18;105565;1254;73843;-28
2023/12/04 04:51:50;;;;;;;6.00;3.50;;;;;;;-2.73;79.29;99341.73;105631;1254;74185;-28
2023/12/04 04:54:17;;;;;;;5.20;3.60;;;;;;;-2.86;79.81;99345.09;105899;1257;72672;-29
2023/12/04 04:56:44;;;;;;;5.80;4.00;;;;;;;-2.99;80.77;99351.79;105495;1252;61039;-28
2023/12/04 04:59:11;;;;;;;5.90;4.00;;;;;;;-2.74;79.18;99342.59;105559;1253;61182;-29
2023/12/04 05:01:38;;;;;;;6.10;3.50;;;;;;;-2.41;77.74;99348.48;105539;1254;73737;-29
2023/12/04 05:04:05;;;;;;;7.40;4.40;;;;;;;-2.45;77.51;99366.60;105305;1254;74308;-28
2023/12/04 05:06:32;;;;;;;6.70;4.30;;;;;;;-2.70;78.13;99351.86;105492;1257;72590;-29
2023/12/04 05:08:59;;;;;;;8.60;5.10;;;;;;;-2.91;79.14;99365.73;105478;1254;61055;-29
2023/12/04 05:11:26;;;;;;;8.50;5.10;;;;;;;-3.12;80.04;99356.83;105542;1254;61167;-29
2023/12/04 05:13:53;;;;;;;5.50;3.70;;;;;;;-3.31;80.40;99354.98;105500;1254;73803;-30
2023/12/04 05:16:20;;;;;;;7.20;3.80;;;;;;;-2.92;79.27;99350.29;105554;1254;74303;-28
2023/12/04 05:18:47;;;;;;;7.40;4.40;;;;;;;-2.52;77.27;99359.79;105545;1257;72487;-28
2023/12/04 05:21:15;;;;;;;5.20;3.30;;;;;;;-2.68;77.18;99362.02;105447;1254;62277;-29
2023/12/04 05:23:42;;;;;;;7.60;3.80;;;;;;;-2.78;77.28;99365.80;105623;1256;61185;-29
2023/12/04 05:26:09;;;;;;;4.60;2.70;;;;;;;-3.00;77.73;99373.90;105301;1254;73661;-28
2023/12/04 05:28:36;;;;;;;6.30;4.00;;;;;;;-3.03;78.29;99372.27;105721;1254;74352;-30
2023/12/04 05:31:04;;;;;;;7.40;4.20;;;;;;;-3.21;78.55;99379.08;105515;1254;70722;-30
2023/12/04 05:33:31;;;;;;;4.90;3.20;;;;;;;-3.19;78.67;99380.23;105356;1254;61182;-31
2023/12/04 05:36:00;;;;;;;5.50;3.60;;;;;;;-2.56;76.83;99379.59;105226;1253;61239;-29
2023/12/04 05:38:27;;;;;;;5.60;2.70;;;;;;;-2.34;75.08;99381.16;105287;1254;73840;-29
2023/12/04 05:40:54;;;;;;;6.50;3.30;;;;;;;-2.46;74.97;99381.27;105573;1256;74365;-30
2023/12/04 05:43:21;;;;;;;5.70;4.10;;;;;;;-2.72;75.71;99379.45;105705;1253;72451;-28
2023/12/04 05:45:48;;;;;;;6.30;3.80;;;;;;;-2.99;76.76;99377.11;105872;1252;61057;-28
2023/12/04 05:48:18;;;;;;;6.10;4.40;;;;;;;-3.22;77.33;99376.05;105559;1254;61108;-28
2023/12/04 05:50:46;;;;;;;5.50;3.50;;;;;;;-3.41;77.96;99375.73;105570;1257;73733;-28
2023/12/04 05:53:13;;;;;;;8.60;4.40;;;;;;;-3.38;78.68;99385.17;105517;1257;74361;-28
2023/12/04 05:55:40;;;;;;;6.20;3.00;;;;;;;-2.95;77.43;99382.98;105812;1254;72539;-29
2023/12/04 05:58:07;;;;;;;6.70;4.20;;;;;;;-2.55;75.29;99387.41;105649;1254;61147;-29
2023/12/04 06:00:34;;;;;;;4.20;2.70;;;;;;;-2.75;75.51;99386.66;105558;1260;61169;-29
2023/12/04 06:03:01;;;;;;;6.20;3.50;;;;;;;-2.80;75.51;99391.84;105560;1254;73706;-29
2023/12/04 06:05:28;;;;;;;6.20;3.70;;;;;;;-3.01;76.55;99389.90;105597;1254;74324;-29
2023/12/04 06:07:57;;;;;;;4.30;2.30;;;;;;;-3.22;77.11;99393.04;105540;1257;72533;-29
2023/12/04 06:10:24;;;;;;;4.70;3.10;;;;;;;-3.28;77.58;99397.90;105552;1254;61064;-29
2023/12/04 06:12:51;;;;;;;7.40;4.50;;;;;;;-3.42;77.76;99399.52;105790;1257;61125;-29
2023/12/04 06:15:19;;;;;;;4.40;2.90;;;;;;;-3.59;78.09;99389.13;105803;1254;74401;-29
2023/12/04 06:17:46;;;;;;;2.40;1.70;;;;;;;-3.04;75.83;99391.83;105710;1254;74262;-29
2023/12/04 06:20:13;;;;;;;5.00;2.90;;;;;;;-2.77;74.34;99393.99;105532;1254;72418;-29
2023/12/04 06:22:41;;;;;;;4.40;2.40;;;;;;;-2.96;72.93;99391.99;105516;1252;61048;-29
2023/12/04 06:25:09;;;;;;;5.40;3.40;;;;;;;-3.07;72.40;99396.65;105536;1257;61131;-29
2023/12/04 06:27:38;;;;;;;4.50;2.60;;;;;;;-3.23;73.30;99402.55;105686;1257;73521;-29
2023/12/04 06:30:06;;;;;;;3.80;2.00;;;;;;;-3.39;73.73;99406.25;105622;1259;74523;-29
2023/12/04 06:32:34;;;;;;;3.30;1.70;;;;;;;-3.40;73.71;99413.74;105353;1254;72640;-29
2023/12/04 06:35:03;;;;;;;4.00;2.30;;;;;;;-3.57;73.96;99417.95;105527;1257;61043;-29
2023/12/04 06:37:31;;;;;;;3.00;1.90;;;;;;;-3.69;74.18;99419.68;105342;1269;61181;-28
2023/12/04 06:39:59;;;;;;;3.00;1.60;;;;;;;-3.50;74.10;99422.58;105350;1254;73562;-29
2023/12/04 06:42:27;;;;;;;1.60;1.40;;;;;;;-2.87;71.93;99424.79;105260;1254;74345;-29
2023/12/04 06:44:54;;;;;;;4.80;2.50;;;;;;;-2.63;70.49;99426.84;105790;1257;72658;-29
2023/12/04 06:47:22;;;;;;;4.90;2.60;;;;;;;-2.78;70.02;99424.94;105678;1258;61730;-29
2023/12/04 06:49:49;;;;;;;3.70;1.90;;;;;;;-2.99;69.80;99416.69;105640;1252;61102;-29
2023/12/04 06:52:17;;;;;;;2.20;1.70;;;;;;;-3.13;70.70;99419.69;105577;1254;73676;-29
2023/12/04 06:54:44;;;;;;;3.90;2.20;;;;;;;-3.31;71.27;99427.51;105512;1254;74318;-29
2023/12/04 06:57:14;;;;;;;3.50;1.60;;;;;;;-3.41;71.23;99430.41;105510;1253;71430;-29
2023/12/04 06:59:44;;;;;;;4.20;2.30;;;;;;;-3.53;71.58;99428.76;105521;1258;61216;-29
2023/12/04 07:02:11;;;;;;;4.30;2.00;;;;;;;-3.61;71.86;99430.41;105354;1262;61128;-30
2023/12/04 07:04:39;;;;;;;4.30;2.30;;;;;;;-3.60;71.78;99436.51;105632;1256;73899;-30
2023/12/04 07:07:07;;;;;;;2.00;1.50;;;;;;;-3.63;71.67;99436.73;105697;1257;74112;-29
2023/12/04 07:09:34;;;;;;;2.00;1.60;;;;;;;-3.09;69.32;99442.21;105552;1257;72649;-30
2023/12/04 07:12:02;;;;;;;1.90;1.70;;;;;;;-2.84;67.43;99442.73;105464;1257;61059;-29
2023/12/04 07:14:29;;;;;;;2.50;1.80;;;;;;;-2.84;66.78;99449.52;105505;1257;61239;-29
2023/12/04 07:16:56;;;;;;;2.90;1.80;;;;;;;-2.94;66.81;99448.71;105585;1256;73839;-29
2023/12/04 07:19:24;;;;;;;3.00;2.10;;;;;;;-2.94;66.92;99448.88;105820;1256;74898;-29
2023/12/04 07:21:51;;;;;;;3.80;2.70;;;;;;;-3.01;67.07;99443.92;105627;1255;72361;-30
2023/12/04 07:24:18;;;;;;;5.10;2.30;;;;;;;-3.02;67.37;99447.69;105773;1254;61084;-30
2023/12/04 07:26:45;;;;;;;3.10;2.30;;;;;;;-3.02;67.52;99448.19;105327;1260;61143;-30
2023/12/04 07:29:12;;;;;;;5.50;2.70;;;;;;;-2.99;67.83;99448.29;105534;1254;74242;-30
2023/12/04 07:31:41;;;;;;;4.60;2.70;;;;;;;-2.99;68.02;99453.73;105613;1256;74371;-31
2023/12/04 07:34:07;;;;;;;5.80;2.50;;;;;;;-2.88;67.91;99456.23;105224;1257;71233;-30
2023/12/04 07:36:35;;;;;;;5.50;2.70;;;;;;;-2.74;67.78;99460.40;105465;1254;61087;-30
2023/12/04 07:39:02;;;;;;;8.10;3.10;;;;;;;-2.52;67.59;99459.25;105671;1263;61099;-30
2023/12/04 07:41:30;;;;;;;5.00;3.00;;;;;;;-2.28;67.17;99457.73;105774;1256;73706;-30
2023/12/04 07:43:57;;;;;;;6.80;3.10;;;;;;;-2.16;66.63;99455.75;105811;1254;74263;-30
2023/12/04 07:46:25;;;;;;;6.90;3.20;;;;;;;-2.03;66.60;99460.06;105870;1254;71227;-30
2023/12/04 07:48:52;;;;;;;4.30;3.00;;;;;;;-1.97;65.92;99464.52;105841;1252;61058;-30
2023/12/04 07:51:23;;;;;;;6.20;3.50;;;;;;;-1.97;66.56;99467.73;105491;1258;61182;-30
2023/12/04 07:53:50;;;;;;;3.60;2.30;;;;;;;-2.00;66.16;99468.31;105557;1256;73686;-30
2023/12/04 07:56:17;;;;;;;3.80;2.10;;;;;;;-2.13;66.30;99470.66;105327;1254;74123;-30
2023/12/04 07:58:44;;;;;;;3.40;2.30;;;;;;;-2.23;66.74;99467.80;105615;1256;72447;-29
2023/12/04 08:01:11;;;;;;;3.70;2.70;;;;;;;-2.49;66.69;99472.80;105499;1254;61122;-29
2023/12/04 08:03:38;;;;;;;4.10;2.40;;;;;;;-2.69;67.49;99471.84;105543;1252;61061;-29
2023/12/04 08:06:06;;;;;;;3.90;2.20;;;;;;;-2.76;68.19;99477.27;105516;1259;73808;-29
2023/12/04 08:08:33;;;;;;;5.90;3.20;;;;;;;-2.95;68.51;99469.13;105324;1258;74488;-29
2023/12/04 08:11:00;;;;;;;4.50;2.60;;;;;;;-3.20;69.49;99469.25;105538;1257;73163;-29
2023/12/04 08:13:28;;;;;;;4.90;2.50;;;;;;;-3.25;69.84;99478.34;105547;1256;61150;-29
2023/12/04 08:15:55;;;;;;;3.70;1.80;;;;;;;-3.25;69.41;99478.50;105520;1257;61148;-29
2023/12/04 08:18:22;;;;;;;4.30;2.50;;;;;;;-2.92;69.34;99483.66;105531;1254;73504;-29
2023/12/04 08:20:48;;;;;;;2.50;1.70;;;;;;;-2.18;67.01;99484.53;105540;1257;74338;-29
2023/12/04 08:23:16;;;;;;;3.60;2.10;;;;;;;-1.83;65.15;99482.73;105515;1259;71700;-29
2023/12/04 08:25:43;;;;;;;2.90;2.20;;;;;;;-1.76;64.71;99476.77;105559;1256;61007;-30
2023/12/04 08:28:10;;;;;;;3.20;2.10;;;;;;;-1.82;64.54;99483.75;105323;1262;61158;-29
2023/12/04 08:30:38;;;;;;;3.70;1.80;;;;;;;-1.87;64.79;99479.77;105531;1256;73505;-30
2023/12/04 08:33:06;;;;;;;3.60;2.60;;;;;;;-1.84;65.31;99475.11;105663;1256;74166;-29
2023/12/04 08:35:33;;;;;;;4.40;2.90;;;;;;;-1.81;65.22;99469.25;105717;1257;73619;-29
2023/12/04 08:38:00;;;;;;;6.20;3.10;;;;;;;-1.95;65.17;99470.25;105788;1256;61166;-29
2023/12/04 08:40:28;;;;;;;5.70;2.70;;;;;;;-2.07;65.56;99463.72;105525;1260;61124;-29
2023/12/04 08:42:54;;;;;;;6.00;2.90;;;;;;;-1.96;65.54;99472.32;105819;1254;73791;-29
2023/12/04 08:45:22;;;;;;;3.90;2.80;;;;;;;-1.89;65.63;99471.32;102996;1260;3663504;-30
2023/12/04 08:47:49;;;;;;;6.20;3.60;;;;;;;-1.72;65.29;99472.42;105718;1254;72692;-30
2023/12/04 08:50:16;;;;;;;5.00;2.90;;;;;;;-1.74;65.07;99466.35;105838;1254;60979;-30
2023/12/04 08:52:45;;;;;;;5.60;3.20;;;;;;;-1.91;65.03;99458.05;105532;1257;61096;-29
2023/12/04 08:55:12;;;;;;;4.00;2.20;;;;;;;-1.88;65.23;99455.45;105637;1256;73718;-29
2023/12/04 08:57:39;;;;;;;6.10;2.60;;;;;;;-1.79;65.11;99452.69;105536;1257;74142;-29
2023/12/04 09:00:08;;;;;;;3.70;2.60;;;;;;;-1.78;65.11;99454.37;105512;1260;72625;-29
2023/12/04 09:02:36;;;;;;;3.70;2.40;;;;;;;-1.85;65.26;99455.23;105300;1261;61240;-29
2023/12/04 09:05:10;;;;;;;6.40;2.90;;;;;;;-1.81;65.37;99457.16;105484;1259;61071;-29
2023/12/04 09:07:37;;;;;;;7.20;3.90;;;;;;;-1.84;65.60;99459.45;105526;1258;73919;-29
2023/12/04 09:10:07;;;;;;;5.20;3.30;;;;;;;-1.64;65.42;99458.09;105468;1270;73364;-29
2023/12/04 09:12:43;;;;;;;4.30;2.60;;;;;;;-1.52;64.97;99454.91;105455;1260;73205;-29
2023/12/04 09:15:11;;;;;;;6.60;3.90;;;;;;;-1.71;64.83;99451.30;105579;1257;61045;-29
2023/12/04 09:17:39;;;;;;;5.70;3.80;;;;;;;-1.91;65.61;99458.08;105508;1253;61102;-29
2023/12/04 09:20:07;;;;;;;5.90;3.20;;;;;;;-2.02;65.79;99459.00;105329;1259;75193;-29
2023/12/04 09:22:37;;;;;;;5.70;3.10;;;;;;;-2.04;66.26;99455.81;105492;1260;74396;-29
2023/12/04 09:25:19;;;;;;;6.30;3.20;;;;;;;-2.13;66.48;99453.64;105431;1256;72658;-29
2023/12/04 09:27:46;;;;;;;5.00;3.40;;;;;;;-2.13;66.81;99449.90;105370;1252;61045;-29
2023/12/04 09:30:13;;;;;;;11.20;4.20;;;;;;;-2.26;67.30;99457.86;105584;1256;61152;-30
2023/12/04 09:32:40;;;;;;;4.30;2.60;;;;;;;-2.25;67.36;99456.97;105721;1256;73548;-29
2023/12/04 09:35:09;;;;;;;6.70;3.50;;;;;;;-2.35;67.47;99456.50;105554;1257;74413;-29
2023/12/04 09:37:36;;;;;;;5.90;3.50;;;;;;;-2.38;67.04;99451.64;105513;1260;72231;-29
2023/12/04 09:40:05;;;;;;;9.00;3.50;;;;;;;-2.49;67.26;99450.86;105566;1254;61080;-29
2023/12/04 09:42:32;;;;;;;4.20;2.90;;;;;;;-2.49;67.56;99452.39;105384;1259;61815;-29
2023/12/04 09:45:01;;;;;;;6.60;4.00;;;;;;;-2.58;68.38;99454.62;105546;1254;73543;-29
2023/12/04 09:47:29;;;;;;;4.70;3.20;;;;;;;-2.61;68.16;99450.76;105599;1256;74165;-29
2023/12/04 09:49:56;;;;;;;4.40;2.80;;;;;;;-2.51;68.25;99448.86;105329;1257;72252;-29
2023/12/04 09:52:23;;;;;;;6.30;3.40;;;;;;;-2.52;68.68;99448.20;105478;1259;61157;-29
2023/12/04 09:54:51;;;;;;;5.60;3.30;;;;;;;-2.49;68.21;99443.22;105592;1257;61169;-29
2023/12/04 09:57:18;;;;;;;4.70;2.90;;;;;;;-2.26;67.44;99440.65;105618;1254;73657;-29
2023/12/04 09:59:45;;;;;;;5.00;3.40;;;;;;;-1.77;66.02;99436.12;105346;1260;74238;-30
2023/12/04 10:02:12;;;;;;;4.60;2.90;;;;;;;-1.54;64.87;99428.73;105706;1260;74042;-29
2023/12/04 10:04:41;;;;;;;5.70;2.50;;;;;;;-1.44;64.11;99431.39;105644;1257;61236;-29
2023/12/04 10:07:08;;;;;;;4.40;3.10;;;;;;;-1.36;64.60;99435.61;105573;1257;61200;-30
2023/12/04 10:09:35;;;;;;;5.20;3.30;;;;;;;-1.40;64.69;99431.80;105817;1255;72797;-30
2023/12/04 10:12:52;;;;;;;4.50;2.80;;;;;;;-1.22;64.88;99432.52;102659;1290;599873;-29
2023/12/04 10:15:20;;;;;;;6.20;4.00;;;;;;;-1.54;64.24;99425.86;104934;1266;61121;-28
2023/12/04 10:25:29;;;;;;;4.40;2.50;;;;;;;-1.64;65.11;99429.66;102602;1292;599861;-30
2023/12/04 10:28:17;;;;;;;5.60;3.60;;;;;;;-1.70;65.36;99423.89;104837;1272;61129;-30
2023/12/04 10:30:45;;;;;;;4.30;2.90;;;;;;;-1.77;65.80;99427.59;104847;1267;61055;-30
2023/12/04 10:33:14;;;;;;;4.30;3.10;;;;;;;-1.57;65.87;99423.20;104747;1275;74251;-30
2023/12/04 10:35:43;;;;;;;4.30;2.90;;;;;;;-1.51;65.35;99422.02;104788;1268;75883;-30
2023/12/04 10:38:14;;;;;;;5.80;3.20;;;;;;;-1.57;65.71;99428.33;102141;1270;3673080;-30
2023/12/04 10:48:21;;;;;;;3.70;2.80;;;;;;;-1.64;67.04;99435.47;102660;1296;600504;-30
2023/12/04 10:50:49;;;;;;;5.50;2.80;;;;;;;-1.61;66.91;99434.71;104868;1270;61060;-30
2023/12/04 10:53:17;;;;;;;5.00;3.10;;;;;;;-1.69;66.58;99430.48;104820;1264;61164;-30
2023/12/04 10:55:46;;;;;;;3.00;1.90;;;;;;;-1.72;67.56;99430.89;104793;1273;71483;-30
2023/12/04 10:58:14;;;;;;;4.60;3.40;;;;;;;-1.73;67.22;99431.09;104802;1265;75111;-29
2023/12/04 11:00:48;;;;;;;3.50;2.90;;;;;;;-1.80;67.71;99425.62;104608;1264;73525;-30
2023/12/04 11:03:29;;;;;;;;;;;;;;;-1.91;68.25;99425.73;102089;1274;61171;-30
2023/12/04 11:06:00;;;;;;;5.20;3.20;;;;;;;-1.92;68.88;99430.86;105173;1264;73296;-30
2023/12/04 11:08:33;;;;;;;5.70;3.50;;;;;;;-1.84;69.15;99431.36;105178;1265;76710;-30
2023/12/04 11:11:11;;;;;;;4.40;3.10;;;;;;;-1.92;68.60;99420.33;104982;1261;72645;-31
2023/12/04 11:13:43;;;;;;;4.70;2.70;;;;;;;-1.90;68.90;99427.92;104774;1263;61075;-30
2023/12/04 11:16:38;;;;;;;3.60;2.40;;;;;;;-1.64;67.98;99415.20;105236;1266;61077;-30
2023/12/04 11:19:34;;;;;;;3.70;1.90;;;;;;;-1.03;65.96;99426.38;105175;1267;72670;-30
2023/12/04 11:22:02;;;;;;;4.80;2.30;;;;;;;-0.82;65.37;99426.45;104986;1261;76502;-30
2023/12/04 11:24:31;;;;;;;3.40;2.50;;;;;;;-0.89;65.51;99430.07;105197;1261;72661;-30
2023/12/04 11:26:59;;;;;;;3.00;2.30;;;;;;;-1.07;66.12;99424.44;105189;1264;61173;-30
2023/12/04 11:29:26;;;;;;;5.70;3.00;;;;;;;-1.34;66.23;99416.14;105209;1261;61116;-30
2023/12/04 11:31:54;;;;;;;2.50;2.00;;;;;;;-1.53;67.10;99420.35;105250;1260;75095;-30
2023/12/04 11:34:23;;;;;;;3.80;2.60;;;;;;;-1.58;67.93;99421.86;105279;1267;74351;-30
2023/12/04 11:36:51;;;;;;;4.30;2.40;;;;;;;-1.71;68.43;99423.19;105003;1260;71668;-30
2023/12/04 11:39:20;;;;;;;3.60;2.50;;;;;;;-1.75;68.70;99429.10;105063;1267;61174;-29
2023/12/04 11:41:47;;;;;;;4.50;2.30;;;;;;;-1.77;68.87;99422.68;105274;1261;61234;-29